Time;durP1;ratioP1;P1;durP2;ratioP2;P2;SDS_P1;SDS_P2;PMS_P1;PMS_P2;Temp;Humidity;BMP_temperature;BMP_pressure;BME280_temperature;BME280_humidity;BME280_pressure;Samples;Min_cycle;Max_cycle;Signal;HPM_P1;HPM_P2
2023/05/22 00:01:48;;;;;;;47.05;32.20;;;;;;;;;;5129520;27;20049;-81
2023/05/22 00:04:20;;;;;;;50.33;34.20;;;;;;;;;;5115282;27;20042;-81
2023/05/22 00:06:47;;;;;;;47.67;33.55;;;;;;;;;;5147860;27;20057;-83
2023/05/22 00:09:14;;;;;;;48.35;33.22;;;;;;;;;;5139121;27;20047;-84
2023/05/22 00:11:40;;;;;;;45.90;32.58;;;;;;;;;;5139068;27;20181;-82
2023/05/22 00:14:06;;;;;;;43.60;29.38;;;;;;;;;;5157792;27;20035;-75
2023/05/22 00:16:32;;;;;;;44.85;28.95;;;;;;;;;;5132911;27;20087;-74
2023/05/22 00:19:00;;;;;;;42.22;28.83;;;;;;;;;;5142784;27;20035;-74
2023/05/22 00:21:26;;;;;;;33.58;23.10;;;;;;;;;;5129140;27;20046;-75
2023/05/22 00:23:52;;;;;;;29.55;20.95;;;;;;;;;;5152580;27;20441;-75
2023/05/22 00:26:22;;;;;;;29.73;21.08;;;;;;;;;;5139263;27;20502;-75
2023/05/22 00:28:48;;;;;;;34.50;24.13;;;;;;;;;;5140326;27;20095;-74
2023/05/22 00:31:14;;;;;;;29.35;22.33;;;;;;;;;;5136644;27;20041;-74
2023/05/22 00:33:40;;;;;;;33.40;23.75;;;;;;;;;;5130484;27;20525;-75
2023/05/22 00:36:06;;;;;;;34.20;23.65;;;;;;;;;;5157197;27;20390;-74
2023/05/22 00:38:33;;;;;;;31.60;23.20;;;;;;;;;;5138356;27;20053;-74
2023/05/22 00:41:00;;;;;;;36.83;24.55;;;;;;;;;;5138550;27;20091;-83
2023/05/22 00:43:27;;;;;;;35.05;25.73;;;;;;;;;;5138643;27;20436;-83
2023/05/22 00:45:53;;;;;;;31.02;21.90;;;;;;;;;;5121691;27;20565;-81
2023/05/22 00:48:23;;;;;;;30.67;22.45;;;;;;;;;;5132638;27;20035;-74
2023/05/22 00:50:53;;;;;;;27.20;18.90;;;;;;;;;;5149349;27;20038;-75
2023/05/22 00:53:20;;;;;;;24.23;18.08;;;;;;;;;;5142188;27;20063;-83
2023/05/22 00:55:47;;;;;;;24.63;18.35;;;;;;;;;;5156523;27;20336;-75
2023/05/22 00:58:15;;;;;;;25.17;17.05;;;;;;;;;;5121070;27;20034;-76
2023/05/22 01:00:42;;;;;;;26.52;18.98;;;;;;;;;;5137915;27;20047;-75
2023/05/22 01:03:08;;;;;;;22.10;17.20;;;;;;;;;;5142259;27;20168;-74
2023/05/22 01:05:38;;;;;;;22.75;16.13;;;;;;;;;;5103651;27;20043;-75
2023/05/22 01:08:08;;;;;;;23.05;17.17;;;;;;;;;;5138024;27;20407;-75
2023/05/22 01:10:36;;;;;;;23.63;17.60;;;;;;;;;;5137812;27;20076;-76
2023/05/22 01:13:22;;;;;;;27.88;21.30;;;;;;;;;;5156827;27;20070;-76
2023/05/22 01:16:06;;;;;;;27.50;20.67;;;;;;;;;;5146808;27;20395;-81
2023/05/22 01:18:46;;;;;;;24.95;18.80;;;;;;;;;;5139544;27;20043;-81
2023/05/22 01:21:12;;;;;;;25.98;19.25;;;;;;;;;;5100290;27;20039;-81
2023/05/22 01:23:44;;;;;;;27.33;20.00;;;;;;;;;;5131115;27;20148;-81
2023/05/22 01:26:20;;;;;;;22.60;17.10;;;;;;;;;;5100293;27;20050;-82
2023/05/22 01:28:49;;;;;;;30.80;21.90;;;;;;;;;;5133463;27;20056;-81
2023/05/22 01:31:16;;;;;;;33.67;23.50;;;;;;;;;;5156677;27;20494;-80
2023/05/22 01:33:42;;;;;;;37.13;26.08;;;;;;;;;;5137484;27;20479;-76
2023/05/22 01:36:09;;;;;;;34.72;24.92;;;;;;;;;;5137938;27;20030;-79
2023/05/22 01:38:35;;;;;;;37.97;25.48;;;;;;;;;;5124195;27;20488;-76
2023/05/22 01:41:02;;;;;;;36.92;27.55;;;;;;;;;;5154960;27;20034;-76
2023/05/22 01:43:28;;;;;;;35.65;26.20;;;;;;;;;;5156102;27;20042;-75
2023/05/22 01:45:54;;;;;;;33.40;25.23;;;;;;;;;;5133883;27;20081;-80
2023/05/22 01:48:20;;;;;;;33.67;24.05;;;;;;;;;;5116850;27;20052;-80
2023/05/22 01:50:47;;;;;;;36.28;26.55;;;;;;;;;;5136087;27;20054;-75
2023/05/22 01:53:18;;;;;;;40.20;29.77;;;;;;;;;;5156039;27;20042;-75
2023/05/22 01:55:54;;;;;;;34.17;26.00;;;;;;;;;;5122546;27;20039;-75
2023/05/22 01:58:25;;;;;;;40.33;27.67;;;;;;;;;;5142882;27;20491;-75
2023/05/22 02:00:53;;;;;;;32.75;24.13;;;;;;;;;;5140518;27;20553;-74
2023/05/22 02:03:21;;;;;;;34.78;26.02;;;;;;;;;;5131485;27;20042;-75
2023/05/22 02:05:51;;;;;;;35.10;27.25;;;;;;;;;;5154027;27;20345;-75
2023/05/22 02:08:18;;;;;;;40.28;28.60;;;;;;;;;;5136186;27;20398;-75
2023/05/22 02:10:45;;;;;;;41.40;30.25;;;;;;;;;;5136443;27;20030;-75
2023/05/22 02:13:12;;;;;;;43.33;30.65;;;;;;;;;;5119436;27;20039;-75
2023/05/22 02:15:38;;;;;;;41.97;30.02;;;;;;;;;;5125569;27;20070;-75
2023/05/22 02:18:11;;;;;;;42.45;29.90;;;;;;;;;;5142798;27;20039;-75
2023/05/22 02:20:37;;;;;;;41.45;30.23;;;;;;;;;;5135646;27;20471;-75
2023/05/22 02:23:04;;;;;;;42.13;31.80;;;;;;;;;;5155440;27;20035;-81
2023/05/22 02:25:30;;;;;;;44.55;31.10;;;;;;;;;;5155296;27;20508;-81
2023/05/22 02:27:56;;;;;;;35.92;26.52;;;;;;;;;;5144815;27;20047;-81
2023/05/22 02:30:22;;;;;;;35.20;25.52;;;;;;;;;;5098561;27;20127;-75
2023/05/22 02:32:48;;;;;;;41.50;30.08;;;;;;;;;;5106234;27;20038;-75
2023/05/22 02:35:14;;;;;;;41.70;29.70;;;;;;;;;;5155062;27;20387;-75
2023/05/22 02:37:41;;;;;;;36.40;26.05;;;;;;;;;;5136486;27;20047;-75
2023/05/22 02:40:08;;;;;;;35.05;25.98;;;;;;;;;;5154950;27;20046;-80
2023/05/22 02:42:35;;;;;;;47.20;32.33;;;;;;;;;;5136243;27;20046;-80
2023/05/22 02:45:01;;;;;;;41.70;30.42;;;;;;;;;;5154881;27;20403;-80
2023/05/22 02:47:27;;;;;;;45.50;31.60;;;;;;;;;;5119323;27;20035;-80
2023/05/22 02:49:53;;;;;;;49.25;34.15;;;;;;;;;;5135889;27;20117;-79
2023/05/22 02:52:21;;;;;;;51.38;33.95;;;;;;;;;;5119061;27;20041;-80
2023/05/22 02:54:47;;;;;;;44.58;32.47;;;;;;;;;;5135916;27;20043;-80
2023/05/22 02:57:13;;;;;;;47.33;34.08;;;;;;;;;;5119065;27;20035;-76
2023/05/22 02:59:39;;;;;;;40.70;30.42;;;;;;;;;;5135386;27;20027;-75
2023/05/22 03:02:05;;;;;;;39.00;28.25;;;;;;;;;;5144601;27;20455;-75
2023/05/22 03:04:31;;;;;;;33.40;25.60;;;;;;;;;;5133687;27;20069;-75
2023/05/22 03:06:57;;;;;;;35.70;27.17;;;;;;;;;;5142056;27;20049;-80
2023/05/22 03:09:24;;;;;;;44.08;32.50;;;;;;;;;;5139919;27;20480;-81
2023/05/22 03:11:50;;;;;;;43.60;30.63;;;;;;;;;;5118673;27;20042;-81
2023/05/22 03:14:16;;;;;;;47.47;32.80;;;;;;;;;;5127029;27;20505;-80
2023/05/22 03:16:42;;;;;;;49.33;33.95;;;;;;;;;;5115938;27;20058;-80
2023/05/22 03:19:15;;;;;;;43.58;32.47;;;;;;;;;;5135556;27;20061;-80
2023/05/22 03:21:45;;;;;;;47.58;33.53;;;;;;;;;;5136136;27;20034;-80
2023/05/22 03:24:14;;;;;;;37.40;27.20;;;;;;;;;;5121697;27;20087;-79
2023/05/22 03:26:40;;;;;;;41.83;29.88;;;;;;;;;;5154337;27;20047;-78
2023/05/22 03:29:06;;;;;;;47.97;35.30;;;;;;;;;;5130839;28;20507;-79
2023/05/22 03:31:33;;;;;;;42.78;30.02;;;;;;;;;;5115425;28;20039;-80
2023/05/22 03:33:59;;;;;;;38.60;29.33;;;;;;;;;;5129582;27;20027;-76
2023/05/22 03:36:26;;;;;;;43.03;30.02;;;;;;;;;;5143022;27;20030;-76
2023/05/22 03:38:52;;;;;;;42.25;29.75;;;;;;;;;;5118316;27;20053;-79
2023/05/22 03:41:18;;;;;;;50.80;34.17;;;;;;;;;;5158253;27;20035;-76
2023/05/22 03:43:45;;;;;;;51.85;36.03;;;;;;;;;;5139749;27;20047;-79
2023/05/22 03:46:11;;;;;;;52.35;37.15;;;;;;;;;;5152559;27;20035;-75
2023/05/22 03:48:38;;;;;;;47.70;35.20;;;;;;;;;;5101984;27;20051;-75
2023/05/22 03:51:04;;;;;;;53.33;37.03;;;;;;;;;;5155631;27;20479;-75
2023/05/22 03:53:30;;;;;;;45.35;33.40;;;;;;;;;;5139974;27;20190;-76
2023/05/22 03:55:59;;;;;;;53.78;38.15;;;;;;;;;;5157810;27;20134;-76
2023/05/22 03:58:25;;;;;;;50.38;35.05;;;;;;;;;;5158176;27;20046;-75
2023/05/22 04:00:57;;;;;;;52.10;36.90;;;;;;;;;;5139094;27;20099;-75
2023/05/22 04:03:23;;;;;;;44.40;32.80;;;;;;;;;;5141658;27;20051;-76
2023/05/22 04:05:50;;;;;;;47.08;33.35;;;;;;;;;;5142731;27;20058;-76
2023/05/22 04:08:16;;;;;;;50.50;35.75;;;;;;;;;;5118994;27;20035;-76
2023/05/22 04:10:45;;;;;;;52.25;36.65;;;;;;;;;;5133003;27;20060;-75
2023/05/22 04:13:15;;;;;;;39.90;29.35;;;;;;;;;;5121990;27;20043;-76
2023/05/22 04:15:44;;;;;;;40.58;28.35;;;;;;;;;;5132695;27;20042;-76
2023/05/22 04:18:10;;;;;;;42.83;31.13;;;;;;;;;;5150238;27;20049;-76
2023/05/22 04:20:37;;;;;;;48.75;33.65;;;;;;;;;;5122127;27;20039;-76
2023/05/22 04:23:03;;;;;;;48.50;35.95;;;;;;;;;;5138811;27;20061;-76
2023/05/22 04:25:30;;;;;;;54.00;38.55;;;;;;;;;;5139277;27;20486;-75
2023/05/22 04:27:58;;;;;;;52.30;36.42;;;;;;;;;;5129068;27;20050;-76
2023/05/22 04:30:25;;;;;;;50.13;36.65;;;;;;;;;;5134385;27;20127;-76
2023/05/22 04:32:51;;;;;;;47.58;34.38;;;;;;;;;;5122099;27;20109;-77
2023/05/22 04:35:18;;;;;;;45.53;32.00;;;;;;;;;;5138750;27;20049;-76
2023/05/22 04:37:45;;;;;;;46.95;33.40;;;;;;;;;;5133020;27;20437;-76
2023/05/22 04:40:13;;;;;;;54.58;37.47;;;;;;;;;;5136431;27;20043;-76
2023/05/22 04:42:41;;;;;;;52.58;35.53;;;;;;;;;;5123481;27;20091;-76
2023/05/22 04:45:07;;;;;;;48.08;34.40;;;;;;;;;;5121436;27;20039;-76
2023/05/22 04:47:33;;;;;;;41.45;30.55;;;;;;;;;;5106899;27;20042;-76
2023/05/22 04:50:01;;;;;;;39.05;29.02;;;;;;;;;;5157230;27;20042;-76
2023/05/22 04:52:27;;;;;;;40.85;29.70;;;;;;;;;;5141979;27;20042;-76
2023/05/22 04:54:54;;;;;;;45.03;31.92;;;;;;;;;;5138749;27;20050;-76
2023/05/22 04:57:20;;;;;;;39.05;29.83;;;;;;;;;;5157308;27;20522;-78
2023/05/22 04:59:47;;;;;;;37.38;28.80;;;;;;;;;;5138834;27;20095;-77
2023/05/22 05:02:13;;;;;;;38.00;27.77;;;;;;;;;;5139289;27;20046;-78
2023/05/22 05:04:40;;;;;;;40.90;29.77;;;;;;;;;;5154357;27;20031;-78
2023/05/22 05:07:06;;;;;;;39.72;29.05;;;;;;;;;;5136042;27;20059;-77
2023/05/22 05:09:32;;;;;;;42.33;30.35;;;;;;;;;;5132212;27;20078;-76
2023/05/22 05:11:58;;;;;;;43.35;31.80;;;;;;;;;;5125725;27;20107;-76
2023/05/22 05:14:25;;;;;;;37.13;29.48;;;;;;;;;;5134211;27;20117;-76
2023/05/22 05:16:51;;;;;;;47.22;34.22;;;;;;;;;;5136439;27;20118;-76
2023/05/22 05:19:20;;;;;;;44.92;31.05;;;;;;;;;;5108512;27;20038;-76
2023/05/22 05:21:46;;;;;;;50.22;34.45;;;;;;;;;;5156139;27;20544;-76
2023/05/22 05:24:12;;;;;;;44.92;32.92;;;;;;;;;;5124219;27;20115;-76
2023/05/22 05:26:38;;;;;;;49.35;34.13;;;;;;;;;;5138446;27;20391;-76
2023/05/22 05:29:04;;;;;;;42.97;32.00;;;;;;;;;;5156474;27;20126;-77
2023/05/22 05:31:32;;;;;;;42.70;32.22;;;;;;;;;;5138763;27;20031;-78
2023/05/22 05:33:58;;;;;;;44.58;30.58;;;;;;;;;;5142088;27;20047;-77
2023/05/22 05:36:24;;;;;;;40.60;29.75;;;;;;;;;;5156482;27;20037;-77
2023/05/22 05:38:50;;;;;;;37.70;28.30;;;;;;;;;;5156829;27;20491;-77
2023/05/22 05:41:17;;;;;;;40.05;28.15;;;;;;;;;;5137907;27;20043;-80
2023/05/22 05:43:44;;;;;;;37.90;28.63;;;;;;;;;;5138205;27;20514;-78
2023/05/22 05:46:10;;;;;;;39.83;30.30;;;;;;;;;;5137639;27;20050;-78
2023/05/22 05:48:38;;;;;;;42.70;28.73;;;;;;;;;;5156319;27;20041;-81
2023/05/22 05:51:04;;;;;;;35.67;28.42;;;;;;;;;;5155920;27;20042;-76
2023/05/22 05:53:30;;;;;;;43.35;31.52;;;;;;;;;;5145951;27;20054;-74
2023/05/22 05:55:57;;;;;;;46.25;32.25;;;;;;;;;;5134942;27;20050;-77
2023/05/22 05:58:23;;;;;;;47.15;31.90;;;;;;;;;;5124587;27;20038;-76
2023/05/22 06:00:49;;;;;;;44.75;31.52;;;;;;;;;;5137126;27;20125;-76
2023/05/22 06:03:16;;;;;;;40.60;29.15;;;;;;;;;;5104711;27;20514;-76
2023/05/22 06:05:44;;;;;;;41.53;30.58;;;;;;;;;;5124318;27;20055;-76
2023/05/22 06:08:12;;;;;;;40.30;29.92;;;;;;;;;;5139292;27;20089;-76
2023/05/22 06:10:38;;;;;;;40.78;30.45;;;;;;;;;;5137458;27;20042;-75
2023/05/22 06:13:04;;;;;;;40.00;28.20;;;;;;;;;;5155684;27;20774;-76
2023/05/22 06:15:30;;;;;;;35.85;27.00;;;;;;;;;;5155274;27;20054;-76
2023/05/22 06:17:56;;;;;;;36.70;27.30;;;;;;;;;;5155654;27;20049;-77
2023/05/22 06:20:24;;;;;;;37.17;25.83;;;;;;;;;;5136720;27;20045;-77
2023/05/22 06:22:50;;;;;;;36.00;26.35;;;;;;;;;;5127941;27;20047;-77
2023/05/22 06:25:28;;;;;;;39.22;23.00;;;;;;;;;;5089572;27;20401;-77
2023/05/22 06:27:54;;;;;;;29.17;18.60;;;;;;;;;;5088904;28;20055;-78
2023/05/22 06:30:21;;;;;;;29.73;16.17;;;;;;;;;;5071351;28;20051;-79
2023/05/22 06:32:47;;;;;;;26.55;14.32;;;;;;;;;;5089656;28;20067;-80
2023/05/22 06:35:13;;;;;;;27.85;13.98;;;;;;;;;;5087893;28;20044;-79
2023/05/22 06:37:41;;;;;;;24.50;12.38;;;;;;;;;;5088282;28;20050;-79
2023/05/22 06:40:08;;;;;;;25.42;14.05;;;;;;;;;;5088254;28;20059;-79
2023/05/22 06:42:35;;;;;;;22.42;11.70;;;;;;;;;;5084494;28;20121;-79
2023/05/22 06:45:01;;;;;;;24.48;12.15;;;;;;;;;;5061217;28;20404;-79
2023/05/22 06:47:27;;;;;;;25.83;12.07;;;;;;;;;;5088042;28;20386;-79
2023/05/22 06:49:53;;;;;;;23.10;11.90;;;;;;;;;;5081379;28;20452;-79
2023/05/22 06:52:19;;;;;;;21.88;10.82;;;;;;;;;;5050883;28;20048;-79
2023/05/22 06:54:45;;;;;;;21.45;11.10;;;;;;;;;;5073811;28;20078;-79
2023/05/22 06:57:11;;;;;;;20.65;10.98;;;;;;;;;;5087649;28;20089;-79
2023/05/22 06:59:37;;;;;;;22.27;10.80;;;;;;;;;;5070991;28;20044;-79
2023/05/22 07:02:03;;;;;;;20.48;11.25;;;;;;;;;;5071283;28;20497;-79
2023/05/22 07:04:30;;;;;;;20.38;11.65;;;;;;;;;;5074218;28;20048;-79
2023/05/22 07:06:56;;;;;;;19.35;11.48;;;;;;;;;;5088191;28;20464;-79
2023/05/22 07:09:22;;;;;;;20.77;11.82;;;;;;;;;;5088415;28;20428;-79
2023/05/22 07:11:48;;;;;;;20.92;11.60;;;;;;;;;;5087741;28;20071;-78
2023/05/22 07:14:14;;;;;;;20.38;12.13;;;;;;;;;;5087103;28;20063;-79
2023/05/22 07:16:40;;;;;;;20.48;11.80;;;;;;;;;;5083999;28;20110;-79
2023/05/22 07:19:07;;;;;;;20.95;10.68;;;;;;;;;;5087423;28;20032;-79
2023/05/22 07:21:34;;;;;;;21.02;11.07;;;;;;;;;;5088427;28;20111;-79
2023/05/22 07:24:06;;;;;;;18.15;10.25;;;;;;;;;;5070348;28;20094;-79
2023/05/22 07:26:33;;;;;;;14.85;10.13;;;;;;;;;;5070226;28;20048;-79
2023/05/22 07:28:59;;;;;;;19.02;12.07;;;;;;;;;;5087284;28;20036;-79
2023/05/22 07:31:26;;;;;;;15.82;10.40;;;;;;;;;;5053559;28;20040;-79
2023/05/22 07:33:52;;;;;;;20.33;10.15;;;;;;;;;;5070174;28;20071;-79
2023/05/22 07:36:19;;;;;;;14.98;9.18;;;;;;;;;;5076288;28;20045;-79
2023/05/22 07:38:45;;;;;;;17.42;10.05;;;;;;;;;;5073902;28;20048;-78
2023/05/22 07:41:11;;;;;;;16.77;9.13;;;;;;;;;;5056851;28;20059;-79
2023/05/22 07:43:37;;;;;;;18.50;9.35;;;;;;;;;;5073472;28;20494;-79
2023/05/22 07:46:05;;;;;;;17.67;8.93;;;;;;;;;;5073363;28;20121;-79
2023/05/22 07:48:31;;;;;;;16.40;8.68;;;;;;;;;;5073371;28;20515;-79
2023/05/22 07:50:57;;;;;;;16.38;7.97;;;;;;;;;;5073258;28;20124;-79
2023/05/22 07:53:23;;;;;;;12.27;7.93;;;;;;;;;;5073380;28;20387;-79
2023/05/22 07:55:49;;;;;;;14.68;7.28;;;;;;;;;;5073187;28;20123;-79
2023/05/22 07:58:15;;;;;;;12.00;7.30;;;;;;;;;;5073740;28;20515;-80
2023/05/22 08:00:41;;;;;;;13.93;7.70;;;;;;;;;;5073000;28;20044;-79
2023/05/22 08:03:08;;;;;;;13.63;7.55;;;;;;;;;;5069647;28;20037;-79
2023/05/22 08:05:34;;;;;;;14.25;6.85;;;;;;;;;;5052995;28;20045;-79
2023/05/22 08:08:01;;;;;;;14.07;7.05;;;;;;;;;;5053477;28;20032;-78
2023/05/22 08:10:28;;;;;;;12.45;6.95;;;;;;;;;;5074021;28;20052;-79
2023/05/22 08:12:54;;;;;;;12.10;6.68;;;;;;;;;;5071906;28;20045;-78
2023/05/22 08:15:20;;;;;;;12.88;6.70;;;;;;;;;;5068143;28;20040;-78
2023/05/22 08:17:46;;;;;;;12.60;6.90;;;;;;;;;;5056555;28;20158;-78
2023/05/22 08:20:12;;;;;;;12.82;6.90;;;;;;;;;;5056407;28;20048;-79
2023/05/22 08:22:40;;;;;;;15.88;6.43;;;;;;;;;;5072488;28;20052;-79
2023/05/22 08:25:06;;;;;;;13.02;6.90;;;;;;;;;;5072513;28;20053;-79
2023/05/22 08:27:32;;;;;;;12.32;6.75;;;;;;;;;;5072466;28;20047;-79
2023/05/22 08:29:58;;;;;;;12.95;7.20;;;;;;;;;;5072988;28;20040;-78
2023/05/22 08:32:24;;;;;;;13.40;7.03;;;;;;;;;;5072558;28;20071;-79
2023/05/22 08:34:50;;;;;;;12.20;6.93;;;;;;;;;;5072599;28;20040;-79
2023/05/22 08:37:16;;;;;;;12.63;7.70;;;;;;;;;;5072622;28;20044;-79
2023/05/22 08:39:42;;;;;;;11.73;6.75;;;;;;;;;;5064486;28;20052;-79
2023/05/22 08:42:09;;;;;;;14.10;7.47;;;;;;;;;;5049955;28;20075;-79
2023/05/22 08:44:35;;;;;;;11.70;7.00;;;;;;;;;;5072157;28;20528;-79
2023/05/22 08:47:03;;;;;;;13.10;8.00;;;;;;;;;;5042626;28;20193;-79
2023/05/22 08:49:30;;;;;;;14.18;7.65;;;;;;;;;;5070967;28;20401;-79
2023/05/22 08:51:59;;;;;;;13.43;7.03;;;;;;;;;;5072688;28;20400;-78
2023/05/22 08:54:26;;;;;;;10.40;7.10;;;;;;;;;;5071796;28;20040;-78
2023/05/22 08:56:52;;;;;;;11.80;6.93;;;;;;;;;;5072342;28;20505;-78
2023/05/22 08:59:20;;;;;;;13.18;7.45;;;;;;;;;;5072393;28;20097;-79
2023/05/22 09:01:46;;;;;;;9.27;7.18;;;;;;;;;;5047436;28;20057;-79
2023/05/22 09:04:13;;;;;;;15.57;7.90;;;;;;;;;;5049157;28;20040;-78
2023/05/22 09:06:39;;;;;;;11.73;7.63;;;;;;;;;;5071982;28;20094;-78
2023/05/22 09:09:05;;;;;;;13.18;8.30;;;;;;;;;;5060093;28;20047;-79
2023/05/22 09:11:31;;;;;;;11.93;7.80;;;;;;;;;;5069879;28;20035;-79
2023/05/22 09:14:07;;;;;;;11.18;7.75;;;;;;;;;;5072058;28;20106;-79
2023/05/22 09:16:42;;;;;;;12.23;8.00;;;;;;;;;;5068275;28;20508;-77
2023/05/22 09:19:09;;;;;;;16.63;8.70;;;;;;;;;;5071844;28;20040;-79
2023/05/22 09:21:36;;;;;;;15.35;9.02;;;;;;;;;;5071598;28;20451;-78
2023/05/22 09:24:03;;;;;;;14.40;8.85;;;;;;;;;;5071323;28;20055;-79
2023/05/22 09:26:29;;;;;;;11.43;8.07;;;;;;;;;;5072604;28;20467;-78
2023/05/22 09:28:56;;;;;;;14.15;8.43;;;;;;;;;;5071742;28;20515;-77
2023/05/22 09:31:22;;;;;;;21.58;9.50;;;;;;;;;;5060699;28;20032;-77
2023/05/22 09:33:48;;;;;;;12.43;8.35;;;;;;;;;;5070428;28;20044;-77
2023/05/22 09:36:14;;;;;;;12.93;8.73;;;;;;;;;;5054556;28;20036;-77
2023/05/22 09:38:40;;;;;;;12.60;8.32;;;;;;;;;;5053371;28;20041;-77
2023/05/22 09:41:07;;;;;;;13.93;8.52;;;;;;;;;;5064293;28;20040;-77
2023/05/22 09:43:33;;;;;;;13.20;9.02;;;;;;;;;;5064364;28;20450;-77
2023/05/22 09:46:03;;;;;;;13.32;8.82;;;;;;;;;;5069621;28;20097;-77
2023/05/22 09:48:29;;;;;;;13.85;8.70;;;;;;;;;;5049467;28;20087;-77
2023/05/22 09:50:56;;;;;;;14.13;9.02;;;;;;;;;;5068516;28;20567;-77
2023/05/22 09:53:27;;;;;;;13.82;9.35;;;;;;;;;;5070843;28;20044;-78
2023/05/22 09:55:55;;;;;;;12.25;8.95;;;;;;;;;;5070634;28;20048;-78
2023/05/22 09:58:23;;;;;;;12.93;9.35;;;;;;;;;;5070956;28;20090;-78
2023/05/22 10:00:50;;;;;;;17.15;9.60;;;;;;;;;;5051268;28;20045;-78
2023/05/22 10:03:17;;;;;;;13.98;9.85;;;;;;;;;;5070913;28;20048;-78
2023/05/22 10:05:48;;;;;;;19.67;10.45;;;;;;;;;;5070831;28;20036;-79
2023/05/22 10:08:14;;;;;;;13.38;9.38;;;;;;;;;;5072338;28;20037;-78
2023/05/22 10:10:42;;;;;;;12.15;9.15;;;;;;;;;;5070595;28;20063;-78
2023/05/22 10:13:08;;;;;;;22.88;9.95;;;;;;;;;;5070746;28;20072;-78
2023/05/22 10:15:36;;;;;;;13.48;8.50;;;;;;;;;;5067433;28;20040;-78
2023/05/22 10:18:02;;;;;;;16.13;9.95;;;;;;;;;;5070304;28;20048;-80
2023/05/22 10:20:29;;;;;;;15.20;9.38;;;;;;;;;;5068307;28;20517;-80
2023/05/22 10:22:56;;;;;;;17.73;9.43;;;;;;;;;;5044009;28;20561;-78
2023/05/22 10:25:22;;;;;;;13.77;9.50;;;;;;;;;;5053933;28;20048;-78
2023/05/22 10:27:51;;;;;;;14.48;8.68;;;;;;;;;;5053939;28;20119;-78
2023/05/22 10:30:52;;;;;;;12.52;9.35;;;;;;;;;;5054308;28;20043;-78
2023/05/22 10:33:27;;;;;;;14.38;10.45;;;;;;;;;;5033363;28;20037;-78
2023/05/22 10:35:56;;;;;;;14.20;10.30;;;;;;;;;;5050485;28;20040;-78
2023/05/22 10:38:35;;;;;;;13.95;9.27;;;;;;;;;;5071991;28;20371;-78
2023/05/22 10:41:02;;;;;;;13.27;9.63;;;;;;;;;;5070489;28;20426;-79
2023/05/22 10:43:32;;;;;;;14.55;9.82;;;;;;;;;;5070000;28;20056;-79
2023/05/22 10:46:02;;;;;;;14.35;9.98;;;;;;;;;;5065097;28;20419;-79
2023/05/22 10:48:28;;;;;;;15.40;9.73;;;;;;;;;;5070508;28;20047;-79
2023/05/22 10:50:55;;;;;;;12.48;9.48;;;;;;;;;;5061257;28;20036;-80
2023/05/22 10:53:28;;;;;;;14.68;10.05;;;;;;;;;;5036960;28;20040;-80
2023/05/22 10:55:55;;;;;;;14.18;9.95;;;;;;;;;;5049901;28;20044;-80
2023/05/22 10:58:41;;;;;;;13.27;9.23;;;;;;;;;;5050384;28;20181;-80
2023/05/22 11:01:14;;;;;;;11.95;10.02;;;;;;;;;;5048923;28;20041;-80
2023/05/22 11:03:49;;;;;;;13.60;10.38;;;;;;;;;;5049361;28;20063;-80
2023/05/22 11:06:29;;;;;;;13.23;9.75;;;;;;;;;;5033881;28;20441;-80
2023/05/22 11:08:59;;;;;;;13.45;9.98;;;;;;;;;;5033457;28;20103;-80
2023/05/22 11:11:26;;;;;;;11.95;9.13;;;;;;;;;;5036281;28;20444;-80
2023/05/22 11:13:52;;;;;;;10.25;8.70;;;;;;;;;;5042396;28;20090;-79
2023/05/22 11:16:19;;;;;;;15.57;9.02;;;;;;;;;;5051693;28;20049;-80
2023/05/22 11:18:45;;;;;;;15.90;9.05;;;;;;;;;;5062460;28;20877;-81
2023/05/22 11:21:12;;;;;;;13.93;9.38;;;;;;;;;;5039662;28;20046;-81
2023/05/22 11:23:39;;;;;;;13.13;9.60;;;;;;;;;;5048610;28;20065;-81
2023/05/22 11:26:23;;;;;;;11.73;9.30;;;;;;;;;;5053722;28;20072;-81
2023/05/22 11:28:50;;;;;;;14.10;9.07;;;;;;;;;;5054450;28;20424;-80
2023/05/22 11:31:17;;;;;;;13.90;9.50;;;;;;;;;;5054877;28;20433;-81
2023/05/22 11:33:45;;;;;;;15.93;9.20;;;;;;;;;;5037167;28;20070;-80
2023/05/22 11:36:12;;;;;;;11.57;8.60;;;;;;;;;;5053861;28;20045;-80
2023/05/22 11:38:39;;;;;;;11.70;9.38;;;;;;;;;;5053476;28;20398;-79
2023/05/22 11:41:08;;;;;;;10.85;9.05;;;;;;;;;;5053113;28;20075;-79
2023/05/22 11:43:35;;;;;;;11.13;8.75;;;;;;;;;;5053713;28;20611;-80
2023/05/22 11:46:06;;;;;;;10.48;8.85;;;;;;;;;;5052386;28;20120;-80
2023/05/22 11:48:33;;;;;;;10.63;8.68;;;;;;;;;;5053679;28;20064;-80
2023/05/22 11:51:00;;;;;;;14.48;9.20;;;;;;;;;;5036822;28;20401;-80
2023/05/22 11:53:26;;;;;;;14.02;9.45;;;;;;;;;;5053306;28;20129;-80
2023/05/22 11:55:52;;;;;;;14.93;9.20;;;;;;;;;;5052820;28;20041;-80
2023/05/22 11:58:27;;;;;;;13.52;9.10;;;;;;;;;;5052893;28;20064;-80
2023/05/22 12:00:56;;;;;;;13.48;8.88;;;;;;;;;;5052799;28;20083;-80
2023/05/22 12:03:23;;;;;;;12.98;9.13;;;;;;;;;;5052352;28;20059;-80
2023/05/22 12:05:50;;;;;;;14.18;9.40;;;;;;;;;;5052382;28;20049;-80
2023/05/22 12:08:16;;;;;;;12.77;9.43;;;;;;;;;;5052305;28;20041;-80
2023/05/22 12:10:47;;;;;;;10.27;9.13;;;;;;;;;;5052829;28;20401;-80
2023/05/22 12:13:13;;;;;;;13.90;9.60;;;;;;;;;;5053185;28;20107;-80
2023/05/22 12:15:39;;;;;;;15.40;9.70;;;;;;;;;;5069194;28;20488;-79
2023/05/22 12:18:10;;;;;;;13.82;10.18;;;;;;;;;;5070900;28;20067;-80
2023/05/22 12:20:41;;;;;;;12.95;10.13;;;;;;;;;;5057393;28;20036;-79
2023/05/22 12:23:10;;;;;;;14.02;10.77;;;;;;;;;;5056215;28;20116;-79
2023/05/22 12:25:37;;;;;;;15.48;11.02;;;;;;;;;;5073997;28;20052;-79
2023/05/22 12:28:04;;;;;;;13.80;11.38;;;;;;;;;;5072493;28;20116;-80
2023/05/22 12:30:39;;;;;;;14.60;10.60;;;;;;;;;;5071851;28;20159;-80
2023/05/22 12:33:07;;;;;;;15.77;11.63;;;;;;;;;;5073748;28;20045;-79
2023/05/22 12:35:33;;;;;;;15.13;10.90;;;;;;;;;;5072456;28;20040;-80
2023/05/22 12:37:59;;;;;;;14.50;10.80;;;;;;;;;;5072314;28;20044;-79
2023/05/22 12:40:25;;;;;;;16.67;11.45;;;;;;;;;;5072562;28;20044;-80
2023/05/22 12:42:51;;;;;;;15.38;11.63;;;;;;;;;;5055819;28;20040;-80
2023/05/22 12:45:17;;;;;;;15.35;12.10;;;;;;;;;;5055232;28;20052;-80
2023/05/22 12:47:43;;;;;;;19.85;12.43;;;;;;;;;;5061339;28;20041;-78
2023/05/22 12:50:10;;;;;;;15.70;11.85;;;;;;;;;;5052241;28;20502;-80
2023/05/22 12:52:36;;;;;;;16.67;12.07;;;;;;;;;;5052213;28;20049;-79
2023/05/22 12:55:02;;;;;;;17.58;11.63;;;;;;;;;;5071378;28;20044;-79
2023/05/22 12:57:28;;;;;;;13.20;11.80;;;;;;;;;;5072468;28;20091;-81
2023/05/22 12:59:54;;;;;;;14.88;12.40;;;;;;;;;;5072430;28;20037;-80
2023/05/22 13:02:20;;;;;;;17.88;11.93;;;;;;;;;;5049836;28;20105;-81
2023/05/22 13:04:46;;;;;;;13.68;10.52;;;;;;;;;;5053630;28;20037;-80
2023/05/22 13:07:12;;;;;;;13.40;11.02;;;;;;;;;;5104877;28;20076;-78
2023/05/22 13:09:38;;;;;;;12.40;10.52;;;;;;;;;;5052078;28;20040;-79
2023/05/22 13:12:05;;;;;;;16.05;11.85;;;;;;;;;;5057935;28;20075;-79
2023/05/22 13:14:31;;;;;;;13.30;11.35;;;;;;;;;;5063861;28;20515;-81
2023/05/22 13:16:57;;;;;;;15.05;11.43;;;;;;;;;;5018714;28;20494;-80
2023/05/22 13:19:23;;;;;;;15.35;11.05;;;;;;;;;;5033804;28;20044;-80
2023/05/22 13:21:49;;;;;;;14.05;11.35;;;;;;;;;;5051211;28;20117;-81
2023/05/22 13:24:15;;;;;;;13.57;11.57;;;;;;;;;;5049392;28;20059;-80
2023/05/22 13:26:41;;;;;;;15.38;11.82;;;;;;;;;;5051416;28;20045;-80
2023/05/22 13:29:07;;;;;;;14.13;10.95;;;;;;;;;;5051225;28;20041;-80
2023/05/22 13:31:36;;;;;;;20.55;11.23;;;;;;;;;;5052097;28;20490;-80
2023/05/22 13:34:02;;;;;;;18.10;12.00;;;;;;;;;;5050677;28;20045;-80
2023/05/22 13:36:28;;;;;;;13.32;11.30;;;;;;;;;;5051715;28;20048;-81
2023/05/22 13:38:54;;;;;;;15.30;11.50;;;;;;;;;;5053271;28;20070;-80
2023/05/22 13:41:20;;;;;;;17.13;11.77;;;;;;;;;;5061830;28;20076;-80
2023/05/22 13:43:46;;;;;;;13.38;10.70;;;;;;;;;;5051196;28;20044;-81
2023/05/22 13:46:12;;;;;;;13.10;9.50;;;;;;;;;;5052447;28;20116;-81
2023/05/22 13:48:39;;;;;;;13.70;8.55;;;;;;;;;;5034490;28;20052;-81
2023/05/22 13:51:05;;;;;;;12.25;7.50;;;;;;;;;;5050623;28;20048;-81
2023/05/22 13:53:31;;;;;;;10.65;7.72;;;;;;;;;;5051241;28;20087;-81
2023/05/22 13:55:57;;;;;;;10.80;7.13;;;;;;;;;;5051252;28;20404;-81
2023/05/22 13:58:23;;;;;;;13.82;8.15;;;;;;;;;;5051061;28;20406;-81
2023/05/22 14:00:49;;;;;;;11.90;7.10;;;;;;;;;;5033997;28;20080;-81
2023/05/22 14:03:16;;;;;;;9.77;7.50;;;;;;;;;;5070867;28;20060;-81
2023/05/22 14:05:45;;;;;;;8.65;6.20;;;;;;;;;;5051199;28;20119;-81
2023/05/22 14:08:12;;;;;;;12.80;7.10;;;;;;;;;;5063923;28;20044;-81
2023/05/22 14:10:38;;;;;;;11.60;7.22;;;;;;;;;;5050937;28;20068;-81
2023/05/22 14:13:04;;;;;;;8.50;6.70;;;;;;;;;;5062596;28;20183;-80
2023/05/22 14:15:30;;;;;;;10.73;5.88;;;;;;;;;;5066201;28;20543;-80
2023/05/22 14:17:56;;;;;;;11.70;6.03;;;;;;;;;;5070884;28;20072;-80
2023/05/22 14:20:22;;;;;;;10.02;5.95;;;;;;;;;;5070239;28;20040;-81
2023/05/22 14:22:48;;;;;;;6.65;5.22;;;;;;;;;;5054082;28;20490;-80